sensor_id;sensor_type;location;lat;lon;timestamp;temperature;humidity
32706;DHT22;19094;50.972;3.538;2023-12-07T00:01:05;9.80;65.60
32706;DHT22;19094;50.972;3.538;2023-12-07T00:03:31;9.70;65.60
32706;DHT22;19094;50.972;3.538;2023-12-07T00:05:57;9.70;65.80
32706;DHT22;19094;50.972;3.538;2023-12-07T00:08:23;9.80;65.90
32706;DHT22;19094;50.972;3.538;2023-12-07T00:10:48;10.00;65.50
32706;DHT22;19094;50.972;3.538;2023-12-07T00:13:14;10.20;64.70
32706;DHT22;19094;50.972;3.538;2023-12-07T00:15:40;10.10;64.90
32706;DHT22;19094;50.972;3.538;2023-12-07T00:18:06;10.10;64.80
32706;DHT22;19094;50.972;3.538;2023-12-07T00:20:31;10.10;64.80
32706;DHT22;19094;50.972;3.538;2023-12-07T00:22:57;10.10;64.90
32706;DHT22;19094;50.972;3.538;2023-12-07T00:25:23;10.10;65.00
32706;DHT22;19094;50.972;3.538;2023-12-07T00:27:48;10.10;64.80
32706;DHT22;19094;50.972;3.538;2023-12-07T00:30:14;10.20;64.60
32706;DHT22;19094;50.972;3.538;2023-12-07T00:32:41;10.20;64.60
32706;DHT22;19094;50.972;3.538;2023-12-07T00:35:13;10.20;65.30
32706;DHT22;19094;50.972;3.538;2023-12-07T00:37:40;10.10;64.80
32706;DHT22;19094;50.972;3.538;2023-12-07T00:40:06;10.20;64.80
32706;DHT22;19094;50.972;3.538;2023-12-07T00:42:33;10.10;65.60
32706;DHT22;19094;50.972;3.538;2023-12-07T00:45:00;10.00;65.30
32706;DHT22;19094;50.972;3.538;2023-12-07T00:47:26;10.10;65.30
32706;DHT22;19094;50.972;3.538;2023-12-07T00:49:52;10.20;65.10
32706;DHT22;19094;50.972;3.538;2023-12-07T00:52:17;10.10;64.90
32706;DHT22;19094;50.972;3.538;2023-12-07T00:54:43;10.00;65.70
32706;DHT22;19094;50.972;3.538;2023-12-07T00:57:09;10.10;65.30
32706;DHT22;19094;50.972;3.538;2023-12-07T00:59:35;10.10;65.30
32706;DHT22;19094;50.972;3.538;2023-12-07T01:02:04;10.00;65.50
32706;DHT22;19094;50.972;3.538;2023-12-07T01:04:30;10.00;65.90
32706;DHT22;19094;50.972;3.538;2023-12-07T01:06:57;9.90;65.80
32706;DHT22;19094;50.972;3.538;2023-12-07T01:09:22;9.90;66.10
32706;DHT22;19094;50.972;3.538;2023-12-07T01:11:49;9.80;65.90
32706;DHT22;19094;50.972;3.538;2023-12-07T01:14:15;9.90;65.90
32706;DHT22;19094;50.972;3.538;2023-12-07T01:16:41;9.80;66.20
32706;DHT22;19094;50.972;3.538;2023-12-07T01:19:07;9.80;66.50
32706;DHT22;19094;50.972;3.538;2023-12-07T01:21:33;9.80;66.40
32706;DHT22;19094;50.972;3.538;2023-12-07T01:23:59;9.80;66.50
32706;DHT22;19094;50.972;3.538;2023-12-07T01:26:25;9.70;66.70
32706;DHT22;19094;50.972;3.538;2023-12-07T01:28:50;9.70;66.70
32706;DHT22;19094;50.972;3.538;2023-12-07T01:31:16;9.80;66.70
32706;DHT22;19094;50.972;3.538;2023-12-07T01:33:43;9.80;66.60
32706;DHT22;19094;50.972;3.538;2023-12-07T01:36:08;9.80;66.60
32706;DHT22;19094;50.972;3.538;2023-12-07T01:38:34;9.90;67.40
32706;DHT22;19094;50.972;3.538;2023-12-07T01:41:00;9.80;66.70
32706;DHT22;19094;50.972;3.538;2023-12-07T01:43:26;9.80;66.70
32706;DHT22;19094;50.972;3.538;2023-12-07T01:45:52;9.80;66.70
32706;DHT22;19094;50.972;3.538;2023-12-07T01:48:20;9.80;66.70
32706;DHT22;19094;50.972;3.538;2023-12-07T01:50:46;9.80;66.70
32706;DHT22;19094;50.972;3.538;2023-12-07T01:53:13;9.80;66.70
32706;DHT22;19094;50.972;3.538;2023-12-07T01:55:39;9.80;66.60
32706;DHT22;19094;50.972;3.538;2023-12-07T01:58:06;9.90;66.50
32706;DHT22;19094;50.972;3.538;2023-12-07T02:00:33;9.80;66.70
32706;DHT22;19094;50.972;3.538;2023-12-07T02:03:00;9.90;66.70
32706;DHT22;19094;50.972;3.538;2023-12-07T02:05:26;9.90;66.40
32706;DHT22;19094;50.972;3.538;2023-12-07T02:07:52;9.80;66.30
32706;DHT22;19094;50.972;3.538;2023-12-07T02:10:18;9.90;66.50
32706;DHT22;19094;50.972;3.538;2023-12-07T02:12:45;9.90;66.30
32706;DHT22;19094;50.972;3.538;2023-12-07T02:15:11;10.00;66.30
32706;DHT22;19094;50.972;3.538;2023-12-07T02:23:18;10.00;66.20
32706;DHT22;19094;50.972;3.538;2023-12-07T02:25:54;9.90;67.00
32706;DHT22;19094;50.972;3.538;2023-12-07T02:28:20;10.00;66.10
32706;DHT22;19094;50.972;3.538;2023-12-07T02:30:46;9.90;66.30
32706;DHT22;19094;50.972;3.538;2023-12-07T02:33:12;9.90;66.40
32706;DHT22;19094;50.972;3.538;2023-12-07T02:35:39;9.80;66.40
32706;DHT22;19094;50.972;3.538;2023-12-07T02:38:07;9.80;66.80
32706;DHT22;19094;50.972;3.538;2023-12-07T02:40:34;9.90;66.60
32706;DHT22;19094;50.972;3.538;2023-12-07T02:43:01;10.10;66.30
32706;DHT22;19094;50.972;3.538;2023-12-07T02:45:27;10.20;65.90
32706;DHT22;19094;50.972;3.538;2023-12-07T02:47:53;10.20;65.50
32706;DHT22;19094;50.972;3.538;2023-12-07T02:50:19;10.30;65.30
32706;DHT22;19094;50.972;3.538;2023-12-07T02:52:45;10.20;65.30
32706;DHT22;19094;50.972;3.538;2023-12-07T02:55:10;10.20;65.70
32706;DHT22;19094;50.972;3.538;2023-12-07T02:57:36;10.20;65.40
32706;DHT22;19094;50.972;3.538;2023-12-07T03:00:06;10.20;65.70
32706;DHT22;19094;50.972;3.538;2023-12-07T03:02:36;10.20;65.60
32706;DHT22;19094;50.972;3.538;2023-12-07T03:05:02;10.30;65.40
32706;DHT22;19094;50.972;3.538;2023-12-07T03:07:28;10.30;65.20
32706;DHT22;19094;50.972;3.538;2023-12-07T03:09:53;10.20;65.40
32706;DHT22;19094;50.972;3.538;2023-12-07T03:12:19;10.20;65.60
32706;DHT22;19094;50.972;3.538;2023-12-07T03:14:45;10.20;65.90
32706;DHT22;19094;50.972;3.538;2023-12-07T03:17:11;10.20;65.90
32706;DHT22;19094;50.972;3.538;2023-12-07T03:19:40;10.30;65.80
32706;DHT22;19094;50.972;3.538;2023-12-07T03:22:06;10.30;65.50
32706;DHT22;19094;50.972;3.538;2023-12-07T03:24:34;10.30;65.70
32706;DHT22;19094;50.972;3.538;2023-12-07T03:26:59;10.20;65.60
32706;DHT22;19094;50.972;3.538;2023-12-07T03:29:25;10.10;65.60
32706;DHT22;19094;50.972;3.538;2023-12-07T03:31:51;10.20;65.80
32706;DHT22;19094;50.972;3.538;2023-12-07T03:34:17;10.30;65.60
32706;DHT22;19094;50.972;3.538;2023-12-07T03:36:45;10.40;65.20
32706;DHT22;19094;50.972;3.538;2023-12-07T03:39:11;10.30;65.10
32706;DHT22;19094;50.972;3.538;2023-12-07T03:41:38;10.50;65.20
32706;DHT22;19094;50.972;3.538;2023-12-07T03:44:04;10.40;65.20
32706;DHT22;19094;50.972;3.538;2023-12-07T03:46:29;10.30;65.20
32706;DHT22;19094;50.972;3.538;2023-12-07T03:48:55;10.40;65.20
32706;DHT22;19094;50.972;3.538;2023-12-07T03:51:21;10.40;65.10
32706;DHT22;19094;50.972;3.538;2023-12-07T03:53:46;10.30;65.20
32706;DHT22;19094;50.972;3.538;2023-12-07T03:56:25;10.20;65.60
32706;DHT22;19094;50.972;3.538;2023-12-07T03:58:51;10.10;65.60
32706;DHT22;19094;50.972;3.538;2023-12-07T04:01:17;10.10;66.00
32706;DHT22;19094;50.972;3.538;2023-12-07T04:03:43;10.00;65.90
32706;DHT22;19094;50.972;3.538;2023-12-07T04:06:09;9.90;66.30
32706;DHT22;19094;50.972;3.538;2023-12-07T04:08:34;9.90;66.50
32706;DHT22;19094;50.972;3.538;2023-12-07T04:11:00;9.80;66.60
32706;DHT22;19094;50.972;3.538;2023-12-07T04:13:26;9.80;66.90
32706;DHT22;19094;50.972;3.538;2023-12-07T04:15:51;9.80;66.90
32706;DHT22;19094;50.972;3.538;2023-12-07T04:18:17;9.80;66.90
32706;DHT22;19094;50.972;3.538;2023-12-07T04:20:43;9.90;66.80
32706;DHT22;19094;50.972;3.538;2023-12-07T04:23:09;9.90;66.80
32706;DHT22;19094;50.972;3.538;2023-12-07T04:25:35;10.00;66.70
32706;DHT22;19094;50.972;3.538;2023-12-07T04:28:01;10.00;66.30
32706;DHT22;19094;50.972;3.538;2023-12-07T04:30:26;10.00;66.30
32706;DHT22;19094;50.972;3.538;2023-12-07T04:32:52;10.00;66.40
32706;DHT22;19094;50.972;3.538;2023-12-07T04:35:18;10.00;66.30
32706;DHT22;19094;50.972;3.538;2023-12-07T04:37:44;10.00;66.30
32706;DHT22;19094;50.972;3.538;2023-12-07T04:40:10;10.00;66.30
32706;DHT22;19094;50.972;3.538;2023-12-07T04:42:36;10.00;66.30
32706;DHT22;19094;50.972;3.538;2023-12-07T04:45:02;9.90;66.30
32706;DHT22;19094;50.972;3.538;2023-12-07T04:47:29;9.90;66.30
32706;DHT22;19094;50.972;3.538;2023-12-07T04:49:55;10.00;66.30
32706;DHT22;19094;50.972;3.538;2023-12-07T04:52:21;10.00;66.40
32706;DHT22;19094;50.972;3.538;2023-12-07T04:54:46;9.90;66.30
32706;DHT22;19094;50.972;3.538;2023-12-07T04:57:12;9.90;66.50
32706;DHT22;19094;50.972;3.538;2023-12-07T04:59:38;9.90;66.40
32706;DHT22;19094;50.972;3.538;2023-12-07T05:02:04;9.90;66.30
32706;DHT22;19094;50.972;3.538;2023-12-07T05:04:30;10.00;66.40
32706;DHT22;19094;50.972;3.538;2023-12-07T05:06:56;9.90;66.40
32706;DHT22;19094;50.972;3.538;2023-12-07T05:09:21;9.90;66.50
32706;DHT22;19094;50.972;3.538;2023-12-07T05:11:47;9.90;66.60
32706;DHT22;19094;50.972;3.538;2023-12-07T05:14:13;10.00;66.70
32706;DHT22;19094;50.972;3.538;2023-12-07T05:16:40;10.10;66.30
32706;DHT22;19094;50.972;3.538;2023-12-07T05:19:06;10.20;66.00
32706;DHT22;19094;50.972;3.538;2023-12-07T05:21:32;10.30;65.80
32706;DHT22;19094;50.972;3.538;2023-12-07T05:23:57;10.40;65.30
32706;DHT22;19094;50.972;3.538;2023-12-07T05:26:23;10.50;64.90
32706;DHT22;19094;50.972;3.538;2023-12-07T05:28:49;10.50;64.80
32706;DHT22;19094;50.972;3.538;2023-12-07T05:31:16;10.40;64.90
32706;DHT22;19094;50.972;3.538;2023-12-07T05:33:42;10.40;65.00
32706;DHT22;19094;50.972;3.538;2023-12-07T05:36:08;10.40;64.90
32706;DHT22;19094;50.972;3.538;2023-12-07T05:38:33;10.30;65.10
32706;DHT22;19094;50.972;3.538;2023-12-07T05:40:59;10.40;65.20
32706;DHT22;19094;50.972;3.538;2023-12-07T05:43:25;10.40;64.90
32706;DHT22;19094;50.972;3.538;2023-12-07T05:45:51;10.40;64.90
32706;DHT22;19094;50.972;3.538;2023-12-07T05:48:16;10.40;65.20
32706;DHT22;19094;50.972;3.538;2023-12-07T05:50:42;10.30;65.00
32706;DHT22;19094;50.972;3.538;2023-12-07T05:53:08;10.30;65.00
32706;DHT22;19094;50.972;3.538;2023-12-07T05:55:34;10.20;65.40
32706;DHT22;19094;50.972;3.538;2023-12-07T05:58:00;10.20;65.80
32706;DHT22;19094;50.972;3.538;2023-12-07T06:00:25;10.20;65.50
32706;DHT22;19094;50.972;3.538;2023-12-07T06:02:51;10.20;65.60
32706;DHT22;19094;50.972;3.538;2023-12-07T06:05:17;10.30;65.50
32706;DHT22;19094;50.972;3.538;2023-12-07T06:07:43;10.20;65.30
32706;DHT22;19094;50.972;3.538;2023-12-07T06:10:09;10.20;65.40
32706;DHT22;19094;50.972;3.538;2023-12-07T06:12:34;10.20;65.60
32706;DHT22;19094;50.972;3.538;2023-12-07T06:15:00;10.10;65.70
32706;DHT22;19094;50.972;3.538;2023-12-07T06:17:26;10.10;65.60
32706;DHT22;19094;50.972;3.538;2023-12-07T06:19:52;10.00;65.70
32706;DHT22;19094;50.972;3.538;2023-12-07T06:22:18;10.00;65.90
32706;DHT22;19094;50.972;3.538;2023-12-07T06:24:44;10.10;65.90
32706;DHT22;19094;50.972;3.538;2023-12-07T06:27:10;10.10;65.90
32706;DHT22;19094;50.972;3.538;2023-12-07T06:29:36;10.10;65.50
32706;DHT22;19094;50.972;3.538;2023-12-07T06:32:02;10.20;65.50
32706;DHT22;19094;50.972;3.538;2023-12-07T06:34:29;10.30;65.20
32706;DHT22;19094;50.972;3.538;2023-12-07T06:36:54;10.10;65.90
32706;DHT22;19094;50.972;3.538;2023-12-07T06:39:20;10.20;65.50
32706;DHT22;19094;50.972;3.538;2023-12-07T06:41:46;10.10;65.50
32706;DHT22;19094;50.972;3.538;2023-12-07T06:44:12;10.10;65.80
32706;DHT22;19094;50.972;3.538;2023-12-07T06:46:37;10.10;66.10
32706;DHT22;19094;50.972;3.538;2023-12-07T06:49:04;10.20;65.60
32706;DHT22;19094;50.972;3.538;2023-12-07T06:51:30;10.30;65.40
32706;DHT22;19094;50.972;3.538;2023-12-07T06:53:55;10.40;65.00
32706;DHT22;19094;50.972;3.538;2023-12-07T06:56:21;10.50;65.00
32706;DHT22;19094;50.972;3.538;2023-12-07T06:58:46;10.50;64.80
32706;DHT22;19094;50.972;3.538;2023-12-07T07:01:13;10.50;64.80
32706;DHT22;19094;50.972;3.538;2023-12-07T07:03:39;10.50;64.40
32706;DHT22;19094;50.972;3.538;2023-12-07T07:06:04;10.40;64.80
32706;DHT22;19094;50.972;3.538;2023-12-07T07:08:30;10.30;65.30
32706;DHT22;19094;50.972;3.538;2023-12-07T07:10:56;10.30;65.00
32706;DHT22;19094;50.972;3.538;2023-12-07T07:13:22;10.40;65.00
32706;DHT22;19094;50.972;3.538;2023-12-07T07:15:47;10.40;64.80
32706;DHT22;19094;50.972;3.538;2023-12-07T07:18:13;10.40;64.70
32706;DHT22;19094;50.972;3.538;2023-12-07T07:20:39;10.50;65.10
32706;DHT22;19094;50.972;3.538;2023-12-07T07:23:05;10.70;64.80
32706;DHT22;19094;50.972;3.538;2023-12-07T07:25:31;10.50;64.80
32706;DHT22;19094;50.972;3.538;2023-12-07T07:27:56;10.30;64.80
32706;DHT22;19094;50.972;3.538;2023-12-07T07:30:22;10.30;65.20
32706;DHT22;19094;50.972;3.538;2023-12-07T07:32:48;10.20;65.60
32706;DHT22;19094;50.972;3.538;2023-12-07T07:35:14;10.20;65.80
32706;DHT22;19094;50.972;3.538;2023-12-07T07:37:40;10.20;65.70
32706;DHT22;19094;50.972;3.538;2023-12-07T07:40:08;10.20;65.60
32706;DHT22;19094;50.972;3.538;2023-12-07T07:42:38;10.20;65.50
32706;DHT22;19094;50.972;3.538;2023-12-07T07:45:09;10.10;65.80
32706;DHT22;19094;50.972;3.538;2023-12-07T07:47:35;10.20;65.70
32706;DHT22;19094;50.972;3.538;2023-12-07T07:50:01;10.20;65.60
32706;DHT22;19094;50.972;3.538;2023-12-07T07:52:35;10.20;66.00
32706;DHT22;19094;50.972;3.538;2023-12-07T07:55:03;10.20;65.70
32706;DHT22;19094;50.972;3.538;2023-12-07T07:57:29;10.10;65.80
32706;DHT22;19094;50.972;3.538;2023-12-07T07:59:56;10.20;65.90
32706;DHT22;19094;50.972;3.538;2023-12-07T08:02:23;10.20;65.90
32706;DHT22;19094;50.972;3.538;2023-12-07T08:04:49;10.00;66.00
32706;DHT22;19094;50.972;3.538;2023-12-07T08:07:15;10.10;66.20
32706;DHT22;19094;50.972;3.538;2023-12-07T08:09:41;10.10;65.90
32706;DHT22;19094;50.972;3.538;2023-12-07T08:12:07;10.10;66.00
32706;DHT22;19094;50.972;3.538;2023-12-07T08:14:37;10.20;65.90
32706;DHT22;19094;50.972;3.538;2023-12-07T08:17:04;10.10;66.00
32706;DHT22;19094;50.972;3.538;2023-12-07T08:19:29;10.10;66.20
32706;DHT22;19094;50.972;3.538;2023-12-07T08:21:55;10.10;66.30
32706;DHT22;19094;50.972;3.538;2023-12-07T08:24:21;10.10;66.30
32706;DHT22;19094;50.972;3.538;2023-12-07T08:26:47;10.00;66.60
32706;DHT22;19094;50.972;3.538;2023-12-07T08:29:13;10.20;66.20
32706;DHT22;19094;50.972;3.538;2023-12-07T08:31:42;10.10;66.40
32706;DHT22;19094;50.972;3.538;2023-12-07T08:34:08;10.00;66.50
32706;DHT22;19094;50.972;3.538;2023-12-07T08:36:34;10.00;66.50
32706;DHT22;19094;50.972;3.538;2023-12-07T08:39:00;10.10;66.50
32706;DHT22;19094;50.972;3.538;2023-12-07T08:41:26;10.10;66.50
32706;DHT22;19094;50.972;3.538;2023-12-07T08:43:52;10.10;66.40
32706;DHT22;19094;50.972;3.538;2023-12-07T08:46:17;10.10;66.50
32706;DHT22;19094;50.972;3.538;2023-12-07T08:48:43;10.20;66.30
32706;DHT22;19094;50.972;3.538;2023-12-07T08:51:10;10.10;66.20
32706;DHT22;19094;50.972;3.538;2023-12-07T08:53:36;10.20;66.40
32706;DHT22;19094;50.972;3.538;2023-12-07T08:56:02;10.20;66.40
32706;DHT22;19094;50.972;3.538;2023-12-07T08:58:28;10.10;66.40
32706;DHT22;19094;50.972;3.538;2023-12-07T09:00:54;10.10;66.70
32706;DHT22;19094;50.972;3.538;2023-12-07T09:03:21;10.10;66.50
32706;DHT22;19094;50.972;3.538;2023-12-07T09:05:51;10.10;66.50
32706;DHT22;19094;50.972;3.538;2023-12-07T09:08:17;10.20;66.40
32706;DHT22;19094;50.972;3.538;2023-12-07T09:10:43;10.20;66.50
32706;DHT22;19094;50.972;3.538;2023-12-07T09:13:08;10.20;66.20
32706;DHT22;19094;50.972;3.538;2023-12-07T09:15:35;10.10;66.60
32706;DHT22;19094;50.972;3.538;2023-12-07T09:18:03;10.10;66.50
32706;DHT22;19094;50.972;3.538;2023-12-07T09:20:29;10.20;66.30
32706;DHT22;19094;50.972;3.538;2023-12-07T09:22:54;10.20;66.20
32706;DHT22;19094;50.972;3.538;2023-12-07T09:25:22;10.20;66.60
32706;DHT22;19094;50.972;3.538;2023-12-07T09:27:48;10.20;66.50
32706;DHT22;19094;50.972;3.538;2023-12-07T09:30:14;10.20;66.40
32706;DHT22;19094;50.972;3.538;2023-12-07T09:32:40;10.20;66.30
32706;DHT22;19094;50.972;3.538;2023-12-07T09:35:08;10.20;66.40
32706;DHT22;19094;50.972;3.538;2023-12-07T09:37:40;10.30;66.30
32706;DHT22;19094;50.972;3.538;2023-12-07T09:40:06;10.30;66.30
32706;DHT22;19094;50.972;3.538;2023-12-07T09:42:36;10.30;66.30
32706;DHT22;19094;50.972;3.538;2023-12-07T09:45:01;10.30;66.30
32706;DHT22;19094;50.972;3.538;2023-12-07T09:47:28;10.30;66.10
32706;DHT22;19094;50.972;3.538;2023-12-07T09:49:56;10.30;66.10
32706;DHT22;19094;50.972;3.538;2023-12-07T09:52:23;10.40;66.20
32706;DHT22;19094;50.972;3.538;2023-12-07T09:54:50;10.40;65.90
32706;DHT22;19094;50.972;3.538;2023-12-07T09:57:17;10.40;65.90
32706;DHT22;19094;50.972;3.538;2023-12-07T09:59:43;10.30;66.00
32706;DHT22;19094;50.972;3.538;2023-12-07T10:02:09;10.40;66.20
32706;DHT22;19094;50.972;3.538;2023-12-07T10:04:34;10.30;66.20
32706;DHT22;19094;50.972;3.538;2023-12-07T10:07:02;10.30;66.40
32706;DHT22;19094;50.972;3.538;2023-12-07T10:09:28;10.30;66.40
32706;DHT22;19094;50.972;3.538;2023-12-07T10:12:04;10.30;66.40
32706;DHT22;19094;50.972;3.538;2023-12-07T10:14:30;10.40;66.20
32706;DHT22;19094;50.972;3.538;2023-12-07T10:16:56;10.50;66.00
32706;DHT22;19094;50.972;3.538;2023-12-07T10:19:23;10.40;65.80
32706;DHT22;19094;50.972;3.538;2023-12-07T10:21:50;10.50;66.00
32706;DHT22;19094;50.972;3.538;2023-12-07T10:24:17;10.50;65.80
32706;DHT22;19094;50.972;3.538;2023-12-07T10:26:44;10.40;65.70
32706;DHT22;19094;50.972;3.538;2023-12-07T10:29:11;10.50;65.90
32706;DHT22;19094;50.972;3.538;2023-12-07T10:31:36;10.50;65.60
32706;DHT22;19094;50.972;3.538;2023-12-07T10:34:03;10.50;65.50
32706;DHT22;19094;50.972;3.538;2023-12-07T10:36:30;10.50;65.70
32706;DHT22;19094;50.972;3.538;2023-12-07T10:38:56;10.50;65.80
32706;DHT22;19094;50.972;3.538;2023-12-07T10:41:23;10.50;65.80
32706;DHT22;19094;50.972;3.538;2023-12-07T10:44:09;10.60;65.40
32706;DHT22;19094;50.972;3.538;2023-12-07T10:46:37;10.50;65.40
32706;DHT22;19094;50.972;3.538;2023-12-07T10:49:08;10.60;65.70
32706;DHT22;19094;50.972;3.538;2023-12-07T10:51:48;10.60;65.40
32706;DHT22;19094;50.972;3.538;2023-12-07T10:54:18;10.70;65.20
32706;DHT22;19094;50.972;3.538;2023-12-07T10:56:46;10.60;65.20
32706;DHT22;19094;50.972;3.538;2023-12-07T10:59:13;10.70;65.20
32706;DHT22;19094;50.972;3.538;2023-12-07T11:01:40;10.60;65.10
32706;DHT22;19094;50.972;3.538;2023-12-07T11:04:11;10.70;64.90
32706;DHT22;19094;50.972;3.538;2023-12-07T11:06:39;10.60;64.90
32706;DHT22;19094;50.972;3.538;2023-12-07T11:09:20;10.70;65.00
32706;DHT22;19094;50.972;3.538;2023-12-07T11:11:59;10.80;64.80
32706;DHT22;19094;50.972;3.538;2023-12-07T11:14:26;10.70;65.00
32706;DHT22;19094;50.972;3.538;2023-12-07T11:16:52;10.90;64.60
32706;DHT22;19094;50.972;3.538;2023-12-07T11:22:06;10.80;64.40
32706;DHT22;19094;50.972;3.538;2023-12-07T11:24:32;10.70;64.70
32706;DHT22;19094;50.972;3.538;2023-12-07T11:26:58;10.70;64.60
32706;DHT22;19094;50.972;3.538;2023-12-07T11:29:25;10.60;64.80
32706;DHT22;19094;50.972;3.538;2023-12-07T11:31:52;10.60;64.90
32706;DHT22;19094;50.972;3.538;2023-12-07T11:34:36;10.70;64.80
32706;DHT22;19094;50.972;3.538;2023-12-07T11:37:03;10.70;64.80
32706;DHT22;19094;50.972;3.538;2023-12-07T11:39:30;10.60;64.80
32706;DHT22;19094;50.972;3.538;2023-12-07T11:42:07;10.60;64.80
32706;DHT22;19094;50.972;3.538;2023-12-07T11:44:38;10.60;65.10
32706;DHT22;19094;50.972;3.538;2023-12-07T11:47:04;10.60;65.10
32706;DHT22;19094;50.972;3.538;2023-12-07T11:49:31;10.60;65.00
32706;DHT22;19094;50.972;3.538;2023-12-07T11:52:11;10.70;65.20
32706;DHT22;19094;50.972;3.538;2023-12-07T11:54:37;10.80;65.90
32706;DHT22;19094;50.972;3.538;2023-12-07T11:57:03;10.90;64.90
32706;DHT22;19094;50.972;3.538;2023-12-07T11:59:30;10.80;65.20
32706;DHT22;19094;50.972;3.538;2023-12-07T12:01:59;10.80;65.10
32706;DHT22;19094;50.972;3.538;2023-12-07T12:04:25;10.80;64.80
32706;DHT22;19094;50.972;3.538;2023-12-07T12:06:51;10.80;64.90
32706;DHT22;19094;50.972;3.538;2023-12-07T12:09:17;10.80;65.00
32706;DHT22;19094;50.972;3.538;2023-12-07T12:11:48;10.80;64.70
32706;DHT22;19094;50.972;3.538;2023-12-07T12:14:17;10.80;64.80
32706;DHT22;19094;50.972;3.538;2023-12-07T12:16:44;10.80;64.70
32706;DHT22;19094;50.972;3.538;2023-12-07T12:19:10;10.90;64.40
32706;DHT22;19094;50.972;3.538;2023-12-07T12:21:37;11.00;64.40
32706;DHT22;19094;50.972;3.538;2023-12-07T12:24:06;10.90;64.20
32706;DHT22;19094;50.972;3.538;2023-12-07T12:26:37;10.90;64.30
32706;DHT22;19094;50.972;3.538;2023-12-07T12:29:07;10.90;64.30
32706;DHT22;19094;50.972;3.538;2023-12-07T12:31:35;11.00;64.10
32706;DHT22;19094;50.972;3.538;2023-12-07T12:34:01;10.90;64.00
32706;DHT22;19094;50.972;3.538;2023-12-07T12:36:28;10.80;64.10
32706;DHT22;19094;50.972;3.538;2023-12-07T12:38:55;10.90;64.20
32706;DHT22;19094;50.972;3.538;2023-12-07T12:41:24;10.90;64.20
32706;DHT22;19094;50.972;3.538;2023-12-07T12:43:51;10.90;64.20
32706;DHT22;19094;50.972;3.538;2023-12-07T12:46:18;10.90;63.80
32706;DHT22;19094;50.972;3.538;2023-12-07T12:49:00;10.80;64.20
32706;DHT22;19094;50.972;3.538;2023-12-07T12:51:27;10.90;64.10
32706;DHT22;19094;50.972;3.538;2023-12-07T12:53:55;10.80;64.20
32706;DHT22;19094;50.972;3.538;2023-12-07T12:56:22;10.80;64.20
32706;DHT22;19094;50.972;3.538;2023-12-07T12:58:52;10.70;64.00
32706;DHT22;19094;50.972;3.538;2023-12-07T13:01:19;10.70;64.30
32706;DHT22;19094;50.972;3.538;2023-12-07T13:03:46;10.70;64.50
32706;DHT22;19094;50.972;3.538;2023-12-07T13:06:13;10.70;64.30
32706;DHT22;19094;50.972;3.538;2023-12-07T13:08:40;10.80;64.30
32706;DHT22;19094;50.972;3.538;2023-12-07T13:11:06;10.80;64.10
32706;DHT22;19094;50.972;3.538;2023-12-07T13:13:32;10.80;64.20
32706;DHT22;19094;50.972;3.538;2023-12-07T13:15:58;10.80;64.00
32706;DHT22;19094;50.972;3.538;2023-12-07T13:18:24;10.70;64.20
32706;DHT22;19094;50.972;3.538;2023-12-07T13:20:49;10.70;64.10
32706;DHT22;19094;50.972;3.538;2023-12-07T13:23:15;10.80;64.20
32706;DHT22;19094;50.972;3.538;2023-12-07T13:25:41;10.80;64.10
32706;DHT22;19094;50.972;3.538;2023-12-07T13:28:07;10.70;63.70
32706;DHT22;19094;50.972;3.538;2023-12-07T13:30:34;10.80;63.80
32706;DHT22;19094;50.972;3.538;2023-12-07T13:33:01;10.70;63.80
32706;DHT22;19094;50.972;3.538;2023-12-07T13:35:29;10.70;64.00
32706;DHT22;19094;50.972;3.538;2023-12-07T13:37:55;10.80;63.60
32706;DHT22;19094;50.972;3.538;2023-12-07T13:40:21;10.80;63.50
32706;DHT22;19094;50.972;3.538;2023-12-07T13:42:47;10.80;63.50
32706;DHT22;19094;50.972;3.538;2023-12-07T13:45:12;10.90;63.40
32706;DHT22;19094;50.972;3.538;2023-12-07T13:47:39;10.90;63.50
32706;DHT22;19094;50.972;3.538;2023-12-07T13:50:06;10.90;63.20
32706;DHT22;19094;50.972;3.538;2023-12-07T13:52:32;10.80;63.10
32706;DHT22;19094;50.972;3.538;2023-12-07T13:54:58;10.80;63.40
32706;DHT22;19094;50.972;3.538;2023-12-07T13:57:24;10.90;63.30
32706;DHT22;19094;50.972;3.538;2023-12-07T13:59:50;10.80;63.20
32706;DHT22;19094;50.972;3.538;2023-12-07T14:02:16;10.90;63.10
32706;DHT22;19094;50.972;3.538;2023-12-07T14:04:42;10.80;62.70
32706;DHT22;19094;50.972;3.538;2023-12-07T14:07:13;10.80;62.80
32706;DHT22;19094;50.972;3.538;2023-12-07T14:09:47;10.90;63.00
32706;DHT22;19094;50.972;3.538;2023-12-07T14:12:14;10.90;63.00
32706;DHT22;19094;50.972;3.538;2023-12-07T14:14:44;10.80;62.80
32706;DHT22;19094;50.972;3.538;2023-12-07T14:17:10;10.90;63.10
32706;DHT22;19094;50.972;3.538;2023-12-07T14:19:36;11.00;62.90
32706;DHT22;19094;50.972;3.538;2023-12-07T14:22:03;10.90;62.70
32706;DHT22;19094;50.972;3.538;2023-12-07T14:24:29;11.00;62.70
32706;DHT22;19094;50.972;3.538;2023-12-07T14:26:56;11.00;62.70
32706;DHT22;19094;50.972;3.538;2023-12-07T14:29:22;10.90;62.40
32706;DHT22;19094;50.972;3.538;2023-12-07T14:31:50;10.90;62.20
32706;DHT22;19094;50.972;3.538;2023-12-07T14:34:17;10.90;62.80
32706;DHT22;19094;50.972;3.538;2023-12-07T14:36:43;10.90;62.50
32706;DHT22;19094;50.972;3.538;2023-12-07T14:39:12;11.00;62.70
32706;DHT22;19094;50.972;3.538;2023-12-07T14:41:49;11.00;62.30
32706;DHT22;19094;50.972;3.538;2023-12-07T14:44:17;11.00;62.40
32706;DHT22;19094;50.972;3.538;2023-12-07T14:46:46;11.00;62.20
32706;DHT22;19094;50.972;3.538;2023-12-07T14:49:13;11.00;62.60
32706;DHT22;19094;50.972;3.538;2023-12-07T14:51:39;11.00;62.10
32706;DHT22;19094;50.972;3.538;2023-12-07T14:54:05;11.00;62.00
32706;DHT22;19094;50.972;3.538;2023-12-07T14:56:32;11.10;62.30
32706;DHT22;19094;50.972;3.538;2023-12-07T14:59:00;11.10;62.20
32706;DHT22;19094;50.972;3.538;2023-12-07T15:01:26;11.00;61.80
32706;DHT22;19094;50.972;3.538;2023-12-07T15:03:51;11.10;61.90
32706;DHT22;19094;50.972;3.538;2023-12-07T15:06:17;11.10;61.90
32706;DHT22;19094;50.972;3.538;2023-12-07T15:08:43;11.10;61.80
32706;DHT22;19094;50.972;3.538;2023-12-07T15:11:09;11.10;61.70
32706;DHT22;19094;50.972;3.538;2023-12-07T15:13:35;11.10;61.70
32706;DHT22;19094;50.972;3.538;2023-12-07T15:16:01;11.10;61.80
32706;DHT22;19094;50.972;3.538;2023-12-07T15:18:29;11.00;62.30
32706;DHT22;19094;50.972;3.538;2023-12-07T15:21:02;11.10;61.90
32706;DHT22;19094;50.972;3.538;2023-12-07T15:23:28;11.10;61.60
32706;DHT22;19094;50.972;3.538;2023-12-07T15:25:54;11.10;62.00
32706;DHT22;19094;50.972;3.538;2023-12-07T15:28:20;11.00;61.80
32706;DHT22;19094;50.972;3.538;2023-12-07T15:30:49;11.10;61.90
32706;DHT22;19094;50.972;3.538;2023-12-07T15:33:15;11.10;61.90
32706;DHT22;19094;50.972;3.538;2023-12-07T15:35:41;11.10;61.60
32706;DHT22;19094;50.972;3.538;2023-12-07T15:38:08;11.10;61.20